Time;durP1;ratioP1;P1;durP2;ratioP2;P2;SDS_P1;SDS_P2;PMS_P1;PMS_P2;Temp;Humidity;BMP_temperature;BMP_pressure;BME280_temperature;BME280_humidity;BME280_pressure;Samples;Min_cycle;Max_cycle;Signal;HPM_P1;HPM_P2
2021/12/12 00:00:57;;;;;;;;;15.25;13.00;;;;;19.80;38.98;101910.09;5090839;27;51679;-43
2021/12/12 00:03:50;;;;;;;;;17.25;14.00;;;;;19.78;39.15;101913.03;5082619;27;51345;-46
2021/12/12 00:06:23;;;;;;;;;14.75;13.50;;;;;19.76;38.97;101904.16;5089469;27;51316;-46
2021/12/12 00:08:55;;;;;;;;;16.00;12.00;;;;;19.74;38.98;101903.50;5089423;27;51028;-49
2021/12/12 00:11:24;;;;;;;;;15.25;11.75;;;;;19.73;39.23;101901.78;5084186;27;52075;-45
2021/12/12 00:13:57;;;;;;;;;12.75;11.00;;;;;19.73;39.09;101895.44;5088567;27;51394;-46
2021/12/12 00:16:22;;;;;;;;;17.25;14.75;;;;;19.71;39.10;101895.63;5084452;27;51300;-48
2021/12/12 00:18:48;;;;;;;;;11.25;11.00;;;;;19.70;38.92;101891.19;5086000;27;52035;-45
2021/12/12 00:21:18;;;;;;;;;15.25;13.00;;;;;19.69;39.13;101886.69;5086659;27;52322;-43
2021/12/12 00:23:44;;;;;;;;;13.75;12.25;;;;;19.68;38.88;101884.16;5086160;27;51561;-43
2021/12/12 00:26:10;;;;;;;;;14.25;12.75;;;;;19.67;39.14;101879.69;5088349;27;50926;-44
2021/12/12 00:28:36;;;;;;;;;9.50;9.50;;;;;19.65;39.21;101879.03;5086750;27;50861;-46
2021/12/12 00:31:09;;;;;;;;;10.25;9.00;;;;;19.65;38.99;101879.03;5086168;27;51270;-45
2021/12/12 00:33:37;;;;;;;;;12.75;10.00;;;;;19.62;39.21;101879.44;5083518;27;50904;-44
2021/12/12 00:36:05;;;;;;;;;17.25;12.50;;;;;19.62;39.18;101880.28;5078027;27;51318;-43
2021/12/12 00:38:32;;;;;;;;;15.25;13.50;;;;;19.60;39.35;101880.47;5086280;27;51319;-43
2021/12/12 00:41:04;;;;;;;;;11.75;9.00;;;;;19.60;39.12;101885.97;5087703;27;51195;-45
2021/12/12 00:43:35;;;;;;;;;10.75;10.75;;;;;19.59;38.93;101881.53;5088308;27;51536;-46
2021/12/12 00:46:04;;;;;;;;;11.75;10.25;;;;;19.58;39.06;101884.44;5096208;27;51162;-44
2021/12/12 00:48:30;;;;;;;;;12.75;10.00;;;;;19.57;39.23;101880.84;5091377;27;51252;-43
2021/12/12 00:50:58;;;;;;;;;11.25;11.00;;;;;19.56;39.01;101892.03;5088091;27;51816;-43
2021/12/12 00:53:24;;;;;;;;;14.50;11.00;;;;;19.55;39.33;101893.94;5085493;27;51288;-44
2021/12/12 00:55:53;;;;;;;;;11.75;9.75;;;;;19.55;39.09;101888.44;5084013;27;50900;-44
2021/12/12 00:58:19;;;;;;;;;8.75;7.50;;;;;19.53;39.30;101879.50;5077893;27;50995;-43
2021/12/12 01:01:02;;;;;;;;;11.25;8.50;;;;;19.53;39.32;101885.00;5093025;27;51015;-44
2021/12/12 01:03:36;;;;;;;;;9.25;8.00;;;;;19.52;39.06;101872.31;5077205;27;51376;-45
2021/12/12 01:06:04;;;;;;;;;6.25;6.25;;;;;19.51;39.03;101875.25;5087169;27;51102;-43
2021/12/12 01:08:31;;;;;;;;;7.25;7.25;;;;;19.49;39.28;101875.44;5089232;27;51121;-45
2021/12/12 01:11:05;;;;;;;;;10.50;7.50;;;;;19.49;39.11;101871.84;5085511;27;51146;-44
2021/12/12 01:13:31;;;;;;;;;9.25;8.75;;;;;19.47;39.21;101872.00;5085619;27;51122;-45
2021/12/12 01:16:06;;;;;;;;;11.25;9.00;;;;;19.47;39.41;101863.75;5088595;27;51211;-43
2021/12/12 01:18:37;;;;;;;;;6.25;6.25;;;;;19.47;39.34;101876.66;5101762;27;51295;-43
2021/12/12 01:21:17;;;;;;;;;8.25;8.25;;;;;19.47;39.13;101872.00;5088758;27;50964;-43
2021/12/12 01:23:52;;;;;;;;;8.25;6.00;;;;;19.46;39.03;101874.94;5085493;27;50941;-45
2021/12/12 01:26:18;;;;;;;;;9.50;8.25;;;;;19.45;39.17;101874.09;5089132;27;51109;-43
2021/12/12 01:28:49;;;;;;;;;8.75;8.00;;;;;19.43;39.35;101881.69;5087570;27;51030;-46
2021/12/12 01:31:24;;;;;;;;;8.00;7.50;;;;;19.43;39.41;101881.69;5086673;27;50978;-46
2021/12/12 01:34:08;;;;;;;;;8.00;6.50;;;;;19.41;39.64;101878.28;5085699;27;51054;-44
2021/12/12 01:36:52;;;;;;;;;9.50;7.75;;;;;19.41;39.77;101883.78;5083243;27;51029;-43
2021/12/12 01:39:21;;;;;;;;;7.50;7.50;;;;;19.40;39.41;101890.31;5080385;27;50996;-46
2021/12/12 01:41:50;;;;;;;;;6.25;6.25;;;;;19.39;39.76;101891.38;5085654;27;51982;-44
2021/12/12 01:44:27;;;;;;;;;6.75;6.75;;;;;19.40;39.55;101892.22;5083676;27;51150;-48
2021/12/12 01:47:07;;;;;;;;;6.50;5.00;;;;;19.39;39.59;101888.63;5091658;27;51146;-46
2021/12/12 01:49:35;;;;;;;;;5.50;5.50;;;;;19.39;39.62;101894.13;5085246;27;51119;-47
2021/12/12 01:52:05;;;;;;;;;8.75;7.00;;;;;19.38;39.49;101895.13;5084307;27;51866;-45
2021/12/12 01:54:43;;;;;;;;;6.25;5.25;;;;;19.37;39.62;101896.16;5084696;27;51063;-44
2021/12/12 01:57:10;;;;;;;;;9.50;5.75;;;;;19.37;39.69;101893.44;5088321;27;51126;-48
2021/12/12 01:59:37;;;;;;;;;5.25;5.25;;;;;19.36;39.44;101897.22;5087955;27;51300;-47
2021/12/12 02:02:14;;;;;;;;;8.75;5.75;;;;;19.36;39.48;101897.22;5077669;27;52008;-47
2021/12/12 02:04:53;;;;;;;;;6.00;6.00;;;;;19.35;39.75;101914.75;5078373;27;50952;-44
2021/12/12 02:07:24;;;;;;;;;13.00;7.00;;;;;19.35;39.68;101916.66;5077483;27;51026;-44
2021/12/12 02:09:50;;;;;;;;;5.50;4.25;;;;;19.33;39.60;101914.94;5084254;27;50932;-43
2021/12/12 02:12:21;;;;;;;;;6.75;5.25;;;;;19.34;39.76;101910.31;5085303;27;52791;-44
2021/12/12 02:14:47;;;;;;;;;6.50;5.00;;;;;19.33;39.83;101919.59;5090976;27;51638;-44
2021/12/12 02:17:32;;;;;;;;;5.75;4.75;;;;;19.33;39.67;101916.84;5088451;27;50960;-44
2021/12/12 02:35:55;;;;;;;;;4.00;4.00;;;;;19.28;39.52;101917.41;5073495;27;51215;-44
2021/12/12 02:38:31;;;;;;;;;3.25;2.75;;;;;19.27;39.50;101917.59;5086444;27;51127;-46
2021/12/12 02:41:00;;;;;;;;;5.25;3.75;;;;;19.26;39.64;101919.47;5088013;27;51165;-44
2021/12/12 02:43:30;;;;;;;;;6.25;4.25;;;;;19.27;39.79;101920.31;5076934;27;51042;-44
2021/12/12 02:45:57;;;;;;;;;5.25;4.00;;;;;19.26;39.72;101919.47;5089649;27;51375;-46
2021/12/12 02:48:33;;;;;;;;;4.75;3.75;;;;;19.26;39.73;101935.09;5082002;27;51143;-45
2021/12/12 02:51:03;;;;;;;;;5.00;3.50;;;;;19.25;39.84;101934.25;5082362;27;50927;-45
2021/12/12 02:53:39;;;;;;;;;4.25;4.00;;;;;19.24;39.69;101931.69;5107158;27;54018;-45
2021/12/12 02:56:27;;;;;;;;;5.00;4.75;;;;;19.23;39.59;101928.09;5088242;27;51480;-44
2021/12/12 02:58:53;;;;;;;;;3.00;3.00;;;;;19.24;39.80;101937.19;5087960;27;51084;-43
2021/12/12 03:01:25;;;;;;;;;5.00;4.00;;;;;19.23;39.77;101922.59;5083434;27;51417;-44
2021/12/12 03:03:51;;;;;;;;;4.25;4.25;;;;;19.23;39.82;101936.34;5086817;27;51489;-45
2021/12/12 03:06:21;;;;;;;;;3.50;3.00;;;;;19.23;39.70;101935.50;5080848;27;51177;-45
2021/12/12 03:08:52;;;;;;;;;3.00;3.00;;;;;19.22;39.91;101934.63;5085954;27;51129;-46
2021/12/12 03:11:18;;;;;;;;;4.25;3.00;;;;;19.22;39.82;101945.63;5081682;27;51061;-48
2021/12/12 03:13:46;;;;;;;;;3.00;2.75;;;;;19.21;39.59;101935.69;5084193;27;51015;-48
2021/12/12 03:16:12;;;;;;;;;2.00;2.00;;;;;19.21;39.61;101943.94;5088800;27;51046;-44
2021/12/12 03:18:43;;;;;;;;;4.75;2.00;;;;;19.20;39.59;101938.63;5087178;27;51007;-44
2021/12/12 03:21:30;;;;;;;;;3.50;3.50;;;;;19.20;39.62;101936.72;5082055;27;51016;-47
2021/12/12 03:23:58;;;;;;;;;4.25;4.25;;;;;19.19;39.72;101937.78;5075589;27;51853;-47
2021/12/12 03:26:24;;;;;;;;;3.00;3.00;;;;;19.20;39.85;101941.38;5082603;27;51174;-44
2021/12/12 03:28:54;;;;;;;;;2.00;2.00;;;;;19.19;39.95;101934.19;5078425;27;51425;-44
2021/12/12 03:31:42;;;;;;;;;2.25;2.25;;;;;19.19;39.71;101940.53;5086470;27;51073;-44
2021/12/12 03:34:11;;;;;;;;;2.75;2.75;;;;;19.19;39.68;101939.66;5097983;27;51628;-44
2021/12/12 03:36:37;;;;;;;;;2.00;2.00;;;;;19.19;39.60;101936.91;5087293;27;51067;-44
2021/12/12 03:39:08;;;;;;;;;3.00;3.00;;;;;19.16;39.76;101935.38;5080392;27;51141;-44
2021/12/12 03:41:35;;;;;;;;;2.00;2.00;;;;;19.16;39.95;101937.28;5086327;27;51277;-44
2021/12/12 03:44:06;;;;;;;;;4.75;2.00;;;;;19.16;39.87;101934.53;5081941;27;52019;-44
2021/12/12 03:46:33;;;;;;;;;3.00;2.00;;;;;19.16;39.78;101931.78;5087953;27;51316;-46
2021/12/12 03:48:59;;;;;;;;;2.25;2.25;;;;;19.14;39.91;101933.88;5087706;27;52532;-45
2021/12/12 03:51:27;;;;;;;;;3.00;2.75;;;;;19.14;39.81;101942.97;5098274;27;51283;-44
2021/12/12 03:53:53;;;;;;;;;2.00;2.00;;;;;19.14;40.03;101937.47;5082422;27;52781;-45
2021/12/12 03:56:20;;;;;;;;;3.50;2.25;;;;;19.13;39.88;101934.91;5087721;27;51170;-47
2021/12/12 03:58:50;;;;;;;;;3.00;3.00;;;;;19.13;39.60;101934.91;5081380;27;51077;-43
2021/12/12 04:01:27;;;;;;;;;1.00;1.00;;;;;19.13;39.94;101940.41;5081923;27;50851;-47
2021/12/12 04:03:55;;;;;;;;;2.75;2.75;;;;;19.13;39.59;101940.41;5078605;27;51201;-45
2021/12/12 04:06:25;;;;;;;;;3.00;3.00;;;;;19.13;39.96;101937.66;5080587;27;50970;-43
2021/12/12 04:08:53;;;;;;;;;3.00;2.00;;;;;19.12;40.03;101933.22;5087361;27;50930;-45
2021/12/12 04:11:29;;;;;;;;;2.25;2.25;;;;;19.12;39.95;101935.94;5073996;27;50979;-45
2021/12/12 04:13:56;;;;;;;;;3.00;1.00;;;;;19.11;39.75;101937.00;5084802;27;51366;-46
2021/12/12 04:16:25;;;;;;;;;3.25;2.25;;;;;19.11;40.00;101945.22;5086496;27;50980;-46
2021/12/12 04:18:51;;;;;;;;;2.75;1.75;;;;;19.10;39.88;101947.13;5106226;27;51247;-44
2021/12/12 04:21:18;;;;;;;;;3.00;2.00;;;;;19.10;40.04;101947.13;5084326;27;51135;-44
2021/12/12 04:23:43;;;;;;;;;3.00;3.00;;;;;19.10;40.10;101954.50;5081450;27;51746;-44
2021/12/12 04:26:11;;;;;;;;;4.00;2.25;;;;;19.09;40.02;101953.66;5080221;27;51090;-45
2021/12/12 04:28:36;;;;;;;;;1.50;1.50;;;;;19.09;39.92;101955.56;5088049;27;51162;-45
2021/12/12 04:31:02;;;;;;;;;2.50;2.50;;;;;19.09;39.86;101961.06;5090265;27;51375;-47
2021/12/12 04:33:27;;;;;;;;;3.00;3.00;;;;;19.09;40.02;101959.16;5086818;27;51038;-44
2021/12/12 04:35:53;;;;;;;;;3.00;2.25;;;;;19.08;39.82;101965.69;5086651;27;51126;-44
2021/12/12 04:38:18;;;;;;;;;2.50;1.00;;;;;19.08;40.08;101973.09;5085110;27;51113;-44
2021/12/12 04:40:43;;;;;;;;;2.00;2.00;;;;;19.08;40.01;101970.34;5081913;27;51106;-47
2021/12/12 04:43:09;;;;;;;;;2.00;2.00;;;;;19.07;40.02;101971.34;5084507;27;52545;-45
2021/12/12 04:46:07;;;;;;;;;3.25;1.75;;;;;19.07;39.93;101971.34;5089218;27;50831;-46
2021/12/12 04:51:39;;;;;;;;;2.25;2.25;;;;;19.06;39.71;101969.63;5078706;27;51103;-44
2021/12/12 04:54:27;;;;;;;;;2.00;2.00;;;;;19.04;40.05;101967.94;5081633;27;51082;-44
2021/12/12 04:56:58;;;;;;;;;2.25;1.75;;;;;19.04;39.92;101969.84;5078012;27;50892;-45
2021/12/12 04:59:32;;;;;;;;;2.00;2.00;;;;;19.04;40.08;101972.56;5094065;27;51212;-46
2021/12/12 05:02:07;;;;;;;;;3.50;3.00;;;;;19.03;39.95;101979.97;5078303;27;51178;-46
2021/12/12 05:04:47;;;;;;;;;4.00;2.25;;;;;19.04;40.09;101980.81;5076265;27;50985;-44
2021/12/12 05:07:19;;;;;;;;;2.75;2.75;;;;;19.03;40.01;101981.84;5086515;27;51184;-46
2021/12/12 05:09:53;;;;;;;;;4.75;1.75;;;;;19.03;40.02;101990.09;5084985;27;51139;-43
2021/12/12 05:12:31;;;;;;;;;5.00;4.00;;;;;19.03;40.11;101979.13;5080514;27;51082;-45
2021/12/12 05:15:03;;;;;;;;;1.00;1.00;;;;;19.02;40.00;101983.75;5080231;27;52701;-46
2021/12/12 05:17:39;;;;;;;;;2.25;2.00;;;;;19.01;40.18;101987.53;5083642;27;51104;-46
2021/12/12 05:20:11;;;;;;;;;3.00;1.75;;;;;19.01;40.15;101984.78;5093943;27;51185;-46
2021/12/12 05:22:39;;;;;;;;;4.25;2.50;;;;;19.01;40.10;101990.28;5085323;27;50919;-45
2021/12/12 05:25:10;;;;;;;;;2.50;1.50;;;;;19.02;39.99;101991.13;5079523;27;51987;-44
2021/12/12 05:27:38;;;;;;;;;3.00;3.00;;;;;19.01;40.13;101997.66;5077855;27;51009;-45
2021/12/12 05:30:15;;;;;;;;;2.00;2.00;;;;;19.02;40.21;101988.41;5089003;27;50940;-44
2021/12/12 05:32:41;;;;;;;;;3.25;3.25;;;;;19.01;40.14;101997.66;5087663;27;51183;-44
2021/12/12 05:35:10;;;;;;;;;2.25;2.25;;;;;19.00;40.50;101996.81;5088487;27;51232;-45
2021/12/12 05:37:36;;;;;;;;;3.75;3.25;;;;;19.00;40.13;102006.94;5091008;27;51336;-44
2021/12/12 05:40:07;;;;;;;;;2.75;2.75;;;;;19.00;40.02;101998.72;5086348;27;51562;-46
2021/12/12 05:42:32;;;;;;;;;2.00;2.00;;;;;18.99;40.25;102006.09;5077852;27;51132;-44
2021/12/12 05:44:59;;;;;;;;;4.00;2.00;;;;;18.99;39.87;102008.00;5088441;27;50965;-43
2021/12/12 05:47:26;;;;;;;;;1.50;1.50;;;;;18.99;40.20;102010.75;5101575;27;50951;-44
2021/12/12 05:49:52;;;;;;;;;4.00;3.50;;;;;18.99;40.15;102013.47;5086175;27;51090;-46
2021/12/12 05:52:21;;;;;;;;;5.75;3.25;;;;;18.99;40.03;102016.22;5077323;27;51120;-46
2021/12/12 05:54:48;;;;;;;;;3.25;3.25;;;;;18.98;40.06;102014.53;5081849;27;51937;-51
2021/12/12 05:57:19;;;;;;;;;3.25;2.25;;;;;18.98;40.12;102020.88;5084925;27;51530;-45
2021/12/12 05:59:45;;;;;;;;;2.50;2.50;;;;;18.98;40.06;102017.28;5084973;27;51089;-46
2021/12/12 06:02:12;;;;;;;;;3.00;3.00;;;;;18.97;40.25;102015.56;5083667;27;51350;-46
2021/12/12 06:04:38;;;;;;;;;3.00;3.00;;;;;18.96;40.25;102017.44;5085576;27;51278;-43
2021/12/12 06:07:08;;;;;;;;;3.50;3.00;;;;;18.98;40.12;102017.28;5085373;27;51288;-44
2021/12/12 06:09:35;;;;;;;;;2.00;2.00;;;;;18.97;40.10;102010.94;5079378;27;51106;-44
2021/12/12 06:12:04;;;;;;;;;2.75;2.75;;;;;18.96;40.24;102017.44;5100889;27;51490;-46
2021/12/12 06:14:30;;;;;;;;;3.75;2.75;;;;;18.97;40.08;102021.06;5082518;27;51791;-45
2021/12/12 06:16:58;;;;;;;;;4.75;3.50;;;;;18.97;40.24;102029.28;5082632;27;51262;-48
2021/12/12 06:19:24;;;;;;;;;4.00;2.25;;;;;18.97;40.25;102040.28;5086339;27;51230;-46
2021/12/12 06:21:53;;;;;;;;;5.25;3.50;;;;;18.95;40.37;102040.44;5085079;27;50962;-44
2021/12/12 06:24:21;;;;;;;;;2.00;2.00;;;;;18.95;40.27;102040.44;5091714;27;51923;-47
2021/12/12 06:26:46;;;;;;;;;4.75;2.75;;;;;18.96;40.22;102038.53;5082569;27;50927;-44
2021/12/12 06:29:12;;;;;;;;;4.50;4.50;;;;;18.95;40.25;102040.44;5082280;27;51151;-45
2021/12/12 06:31:41;;;;;;;;;3.00;3.00;;;;;18.95;40.39;102040.44;5092000;27;51073;-44
2021/12/12 06:34:08;;;;;;;;;2.00;2.00;;;;;18.96;40.25;102049.53;5093067;27;52154;-44
2021/12/12 06:36:34;;;;;;;;;3.75;2.75;;;;;18.95;40.19;102051.41;5104017;27;51331;-50
2021/12/12 06:39:01;;;;;;;;;5.00;3.00;;;;;18.94;40.32;102048.88;5081545;27;50967;-44
2021/12/12 06:41:27;;;;;;;;;4.00;2.75;;;;;18.93;40.23;102048.00;5086190;27;51259;-44
2021/12/12 06:43:53;;;;;;;;;3.00;3.00;;;;;18.94;40.42;102052.47;5071842;27;51111;-47
2021/12/12 06:46:20;;;;;;;;;3.00;3.00;;;;;18.93;40.66;102061.75;5076823;27;51433;-44
2021/12/12 06:48:47;;;;;;;;;2.00;1.75;;;;;18.93;40.34;102067.22;5087679;27;51063;-47
2021/12/12 06:51:12;;;;;;;;;3.00;3.00;;;;;18.93;40.11;102060.88;5079068;27;51431;-50
2021/12/12 06:53:42;;;;;;;;;3.00;3.00;;;;;18.92;40.54;102062.78;5079831;27;51667;-44
2021/12/12 06:56:09;;;;;;;;;2.00;2.00;;;;;18.93;40.26;102067.22;5087812;27;51318;-46
2021/12/12 06:58:35;;;;;;;;;2.00;2.00;;;;;18.93;40.27;102071.88;5084840;27;51034;-45
2021/12/12 07:01:09;;;;;;;;;3.00;3.00;;;;;18.92;40.43;102081.16;5081331;27;51129;-44
2021/12/12 07:03:37;;;;;;;;;5.00;3.00;;;;;18.93;40.39;102083.72;5089291;27;50936;-45
2021/12/12 07:06:03;;;;;;;;;2.75;2.00;;;;;18.92;40.36;102073.75;5082026;27;51434;-47
2021/12/12 07:08:29;;;;;;;;;3.00;2.00;;;;;18.91;40.43;102091.28;5091065;27;51131;-44
2021/12/12 07:10:55;;;;;;;;;3.50;2.25;;;;;18.91;40.33;102085.78;5091784;27;51324;-44
2021/12/12 07:13:20;;;;;;;;;2.25;2.25;;;;;18.90;40.38;102088.72;5086264;27;51821;-50
2021/12/12 07:15:53;;;;;;;;;2.00;2.00;;;;;18.91;40.35;102088.53;5094566;27;50959;-46
2021/12/12 07:18:23;;;;;;;;;2.75;2.75;;;;;18.90;40.23;102085.97;5114857;27;51047;-44
2021/12/12 07:20:51;;;;;;;;;3.00;3.00;;;;;18.89;40.38;102087.00;5078388;27;51077;-46
2021/12/12 07:23:17;;;;;;;;;2.00;2.00;;;;;18.89;40.46;102090.59;5089131;27;51989;-47
2021/12/12 07:25:44;;;;;;;;;2.50;2.50;;;;;18.90;40.31;102096.94;5088876;27;51197;-48
2021/12/12 07:28:10;;;;;;;;;4.00;3.00;;;;;18.88;40.26;102085.31;5090836;27;50889;-44
2021/12/12 07:30:36;;;;;;;;;2.00;1.75;;;;;18.89;40.37;102098.00;5083073;27;51104;-44
2021/12/12 07:33:04;;;;;;;;;2.25;2.25;;;;;18.89;40.37;102098.84;5094596;27;51038;-46
2021/12/12 07:35:32;;;;;;;;;2.50;2.00;;;;;18.88;40.43;102097.13;5092997;27;51077;-43
2021/12/12 07:37:58;;;;;;;;;2.50;1.00;;;;;18.89;40.45;102103.47;5090588;27;50982;-43
2021/12/12 07:40:24;;;;;;;;;3.00;3.00;;;;;18.89;40.25;102104.34;5086676;27;51419;-47
2021/12/12 07:42:50;;;;;;;;;2.00;2.00;;;;;18.87;40.45;102103.66;5083052;27;51868;-43
2021/12/12 07:45:17;;;;;;;;;2.25;2.25;;;;;18.87;40.46;102106.41;5077353;27;51146;-44
2021/12/12 07:47:43;;;;;;;;;2.00;2.00;;;;;18.87;40.42;102105.56;5088140;27;51127;-44
2021/12/12 07:50:12;;;;;;;;;4.00;1.25;;;;;18.87;40.32;102117.41;5090848;27;51021;-44
2021/12/12 07:52:39;;;;;;;;;3.00;2.25;;;;;18.87;40.42;102113.81;5078453;27;50946;-47
2021/12/12 07:55:06;;;;;;;;;2.25;2.25;;;;;18.86;40.53;102107.47;5091266;27;51069;-43
2021/12/12 07:57:32;;;;;;;;;1.00;1.00;;;;;18.87;40.60;102114.66;5089272;27;51174;-43
2021/12/12 07:59:59;;;;;;;;;2.00;1.75;;;;;18.87;40.47;102119.28;5088689;27;51260;-44
2021/12/12 08:02:26;;;;;;;;;3.00;1.75;;;;;18.86;40.22;102115.69;5082015;27;51681;-46
2021/12/12 08:04:52;;;;;;;;;2.00;2.00;;;;;18.86;40.61;102123.94;5071751;27;51398;-44
2021/12/12 08:07:19;;;;;;;;;3.75;2.00;;;;;18.85;40.75;102111.22;5074040;27;52238;-43
2021/12/12 08:09:46;;;;;;;;;3.50;2.75;;;;;18.87;40.69;102120.16;5072458;27;51315;-46
2021/12/12 08:12:19;;;;;;;;;2.25;2.25;;;;;18.91;40.37;102124.22;5084588;27;51985;-49
2021/12/12 08:14:46;;;;;;;;;2.00;2.00;;;;;18.97;40.45;102133.66;5075445;27;51088;-42
2021/12/12 08:17:13;;;;;;;;;4.50;4.25;;;;;19.00;40.73;102136.88;5075147;27;51125;-48
2021/12/12 08:19:40;;;;;;;;;3.75;3.75;;;;;19.02;40.79;102148.53;5071151;27;51182;-43
2021/12/12 08:22:09;;;;;;;;;5.00;4.00;;;;;19.02;40.84;102137.53;5089496;27;51644;-46
2021/12/12 08:24:37;;;;;;;;;4.00;4.00;;;;;19.02;41.20;102142.19;5081128;27;51221;-45
2021/12/12 08:27:04;;;;;;;;;6.00;5.00;;;;;19.01;40.79;102137.72;5077617;27;51224;-45
2021/12/12 08:29:32;;;;;;;;;6.00;5.25;;;;;18.97;41.05;102136.38;5093716;27;52427;-44
2021/12/12 08:31:58;;;;;;;;;5.00;4.00;;;;;18.96;41.63;102132.75;5070534;27;52428;-44
2021/12/12 08:34:26;;;;;;;;;3.75;3.00;;;;;18.97;42.01;102130.91;5070747;27;51454;-48
2021/12/12 08:36:54;;;;;;;;;2.75;1.75;;;;;19.00;42.27;102139.63;5072949;27;51166;-48
2021/12/12 08:39:20;;;;;;;;;5.75;3.25;;;;;19.06;42.27;102142.66;5081950;27;51132;-44
2021/12/12 08:41:50;;;;;;;;;2.50;2.25;;;;;19.15;42.47;102152.56;5068006;27;52042;-43
2021/12/12 08:44:18;;;;;;;;;3.25;2.75;;;;;19.22;42.39;102150.81;5096713;27;51217;-46
2021/12/12 08:46:46;;;;;;;;;5.00;5.00;;;;;19.30;42.49;102156.25;5072470;27;51005;-46
2021/12/12 08:49:15;;;;;;;;;3.25;2.00;;;;;19.38;42.40;102160.81;5075292;27;51202;-46
2021/12/12 08:51:46;;;;;;;;;3.25;2.50;;;;;19.46;42.38;102163.50;5080168;27;50896;-45
2021/12/12 08:54:17;;;;;;;;;1.50;1.50;;;;;19.52;42.55;102155.38;5085372;27;51073;-43
2021/12/12 08:56:47;;;;;;;;;2.25;2.25;;;;;19.59;42.77;102150.91;5082679;27;50967;-43
2021/12/12 08:59:26;;;;;;;;;1.00;1.00;;;;;19.69;42.65;102155.25;5084455;27;51139;-45
2021/12/12 09:01:56;;;;;;;;;4.00;2.25;;;;;19.75;42.72;102163.63;5072397;27;52154;-44
2021/12/12 09:04:22;;;;;;;;;3.00;3.00;;;;;19.84;42.68;102165.25;5078402;27;51423;-43
2021/12/12 09:07:05;;;;;;;;;2.50;2.25;;;;;19.92;42.85;102167.09;5083915;27;51185;-44
2021/12/12 09:09:38;;;;;;;;;1.00;1.00;;;;;20.00;42.76;102169.72;5081114;27;51210;-46
2021/12/12 09:12:30;;;;;;;;;3.75;3.00;;;;;20.07;42.69;102170.69;5072351;27;51860;-45
2021/12/12 09:15:07;;;;;;;;;3.50;3.00;;;;;20.16;42.65;102172.34;5073562;27;51173;-45
2021/12/12 09:17:39;;;;;;;;;4.25;3.50;;;;;20.24;42.61;102179.66;5073274;27;51182;-43
2021/12/12 09:20:17;;;;;;;;;3.25;3.25;;;;;20.33;42.60;102177.66;5085256;27;51325;-45
2021/12/12 09:22:55;;;;;;;;;2.75;2.00;;;;;20.42;42.42;102182.91;5083415;27;51854;-45
2021/12/12 09:25:38;;;;;;;;;4.75;3.25;;;;;20.52;42.60;102179.84;5083719;27;51394;-46
2021/12/12 09:28:25;;;;;;;;;4.00;1.75;;;;;20.62;42.56;102174.06;5070322;27;51699;-46
2021/12/12 09:30:51;;;;;;;;;4.00;2.00;;;;;20.69;42.67;102175.88;5067118;27;51058;-44
2021/12/12 09:33:19;;;;;;;;;1.75;1.75;;;;;20.79;41.89;102171.97;5066519;27;51020;-47
2021/12/12 09:36:02;;;;;;;;;3.50;3.00;;;;;20.83;42.19;102171.38;5069281;27;51188;-44
2021/12/12 09:38:32;;;;;;;;;3.25;2.00;;;;;20.89;41.64;102178.88;5079514;27;51120;-44
2021/12/12 09:40:58;;;;;;;;;3.50;3.00;;;;;20.95;41.77;102175.38;5075651;27;51324;-44
2021/12/12 09:43:29;;;;;;;;;1.75;1.75;;;;;21.01;42.00;102174.56;5083503;27;51003;-44
2021/12/12 09:46:06;;;;;;;;;2.50;2.00;;;;;21.07;41.68;102174.84;5078500;27;51078;-46
2021/12/12 09:52:04;;;;;;;;;3.00;2.00;;;;;21.19;41.44;102182.41;5067569;27;51069;-43
2021/12/12 09:54:40;;;;;;;;;3.00;1.00;;;;;21.23;41.20;102182.88;5074697;27;52641;-44
2021/12/12 09:57:24;;;;;;;;;3.25;2.00;;;;;21.28;41.10;102174.91;5074393;27;51380;-43
2021/12/12 10:00:09;;;;;;;;;3.25;3.25;;;;;21.33;41.25;102184.28;5072528;27;51354;-44
2021/12/12 10:02:55;;;;;;;;;2.00;1.75;;;;;21.38;41.57;102177.34;5077651;27;51155;-47
2021/12/12 10:05:36;;;;;;;;;3.50;3.00;;;;;21.42;41.68;102174.00;5060325;27;52932;-46
2021/12/12 10:08:08;;;;;;;;;3.25;2.00;;;;;21.50;41.45;102175.78;5077381;27;51252;-44
2021/12/12 10:10:39;;;;;;;;;3.00;3.00;;;;;21.55;41.07;102179.63;5077065;27;51086;-45
2021/12/12 10:13:26;;;;;;;;;2.75;2.00;;;;;21.59;41.46;102177.34;5088414;27;51174;-44
2021/12/12 10:15:56;;;;;;;;;1.25;1.25;;;;;21.58;41.32;102181.16;5067087;27;52689;-49
2021/12/12 10:18:41;;;;;;;;;2.00;2.00;;;;;21.53;41.90;102180.88;5073501;27;51461;-45
2021/12/12 10:21:28;;;;;;;;;2.75;2.75;;;;;21.48;40.98;102180.63;5073409;27;50968;-44
2021/12/12 10:24:21;;;;;;;;;2.00;2.00;;;;;21.42;41.61;102178.66;5082583;27;51185;-48
2021/12/12 10:27:08;;;;;;;;;2.50;2.00;;;;;21.38;41.69;102180.09;5083036;27;51726;-43
2021/12/12 10:29:49;;;;;;;;;5.75;3.00;;;;;21.33;41.06;102176.00;5082036;27;51243;-45
2021/12/12 10:32:21;;;;;;;;;3.00;3.00;;;;;21.34;41.01;102185.13;5081742;27;51155;-44
2021/12/12 10:35:09;;;;;;;;;2.75;2.75;;;;;21.37;41.34;102190.28;5084528;27;51122;-44
2021/12/12 10:37:50;;;;;;;;;6.50;2.75;;;;;21.44;41.43;102187.56;5090796;27;51853;-46
2021/12/12 10:40:22;;;;;;;;;2.75;2.75;;;;;21.47;41.01;102181.69;5077941;27;51427;-47
2021/12/12 10:42:53;;;;;;;;;2.00;2.00;;;;;21.50;41.25;102190.41;5076780;27;51366;-46
2021/12/12 10:45:33;;;;;;;;;5.00;3.00;;;;;21.56;41.59;102191.50;5072478;27;51268;-44
2021/12/12 10:48:15;;;;;;;;;4.75;3.00;;;;;21.59;41.86;102188.38;5077456;27;51683;-45
2021/12/12 10:51:12;;;;;;;;;4.25;3.50;;;;;21.61;41.61;102189.03;5073743;27;51411;-45
2021/12/12 10:54:08;;;;;;;;;2.50;2.50;;;;;21.61;41.45;102180.75;5077339;27;51060;-40
2021/12/12 10:56:46;;;;;;;;;4.00;4.00;;;;;21.59;41.67;102188.38;5067019;27;51191;-43
2021/12/12 10:59:21;;;;;;;;;3.25;3.25;;;;;21.56;41.49;102195.13;5074738;27;52891;-44
2021/12/12 11:01:49;;;;;;;;;4.25;4.25;;;;;21.52;42.03;102187.44;5074014;27;51033;-45
2021/12/12 11:04:38;;;;;;;;;5.00;4.75;;;;;21.46;41.67;102188.22;5091030;27;51573;-43
2021/12/12 11:07:08;;;;;;;;;5.75;5.50;;;;;21.38;41.52;102189.22;5061411;27;51376;-43
2021/12/12 11:09:59;;;;;;;;;6.50;5.25;;;;;21.29;41.36;102185.72;5078433;27;52328;-43
2021/12/12 11:12:49;;;;;;;;;7.25;5.75;;;;;21.21;41.80;102183.06;5078697;28;51411;-45
2021/12/12 11:15:20;;;;;;;;;5.25;5.00;;;;;21.17;41.33;102186.41;5078457;27;51026;-43
2021/12/12 11:17:59;;;;;;;;;5.50;4.50;;;;;21.11;41.50;102187.19;5078884;27;51071;-46
2021/12/12 11:20:39;;;;;;;;;7.25;5.75;;;;;21.06;41.81;102186.94;5078636;27;52534;-45
2021/12/12 11:23:27;;;;;;;;;4.75;4.75;;;;;20.98;41.35;102188.75;5078950;27;51446;-44
2021/12/12 11:26:04;;;;;;;;;8.50;6.00;;;;;20.94;42.21;102189.31;5081350;27;51025;-45
2021/12/12 11:28:46;;;;;;;;;5.75;5.75;;;;;20.87;41.72;102188.38;5091222;27;51041;-44
2021/12/12 11:31:19;;;;;;;;;6.25;6.25;;;;;20.84;42.15;102191.50;5083800;27;51803;-46
2021/12/12 11:33:49;;;;;;;;;5.00;5.00;;;;;20.78;41.60;102193.13;5080863;27;51380;-45
2021/12/12 11:36:18;;;;;;;;;6.50;6.50;;;;;20.73;41.64;102196.44;5089205;27;51005;-47
2021/12/12 11:39:02;;;;;;;;;6.00;5.25;;;;;20.71;42.13;102194.94;5101480;27;50985;-44
2021/12/12 11:41:36;;;;;;;;;4.75;4.75;;;;;20.67;41.94;102186.22;5086219;27;51790;-45
2021/12/12 11:44:20;;;;;;;;;4.00;4.00;;;;;20.63;41.75;102184.03;5088052;27;51028;-49
2021/12/12 11:47:16;;;;;;;;;5.00;5.00;;;;;20.59;41.96;102183.56;5087305;27;50944;-46
2021/12/12 11:50:01;;;;;;;;;4.00;4.00;;;;;20.55;42.13;102190.50;5088131;27;51066;-46
2021/12/12 11:53:03;;;;;;;;;4.50;4.50;;;;;20.50;42.34;102187.47;5086735;27;51498;-46
2021/12/12 11:55:47;;;;;;;;;6.25;5.75;;;;;20.47;42.29;102193.34;5078621;27;51413;-46
2021/12/12 11:58:33;;;;;;;;;7.00;6.25;;;;;20.43;42.29;102197.53;5069866;27;51091;-45
2021/12/12 12:01:10;;;;;;;;;7.00;6.00;;;;;20.39;42.60;102188.75;5073169;27;51390;-47
2021/12/12 12:03:38;;;;;;;;;7.25;6.50;;;;;20.35;42.56;102189.34;5085376;27;51646;-44
2021/12/12 12:06:21;;;;;;;;;7.50;7.50;;;;;20.33;42.64;102185.94;5072870;27;51477;-48
2021/12/12 12:08:58;;;;;;;;;5.50;4.25;;;;;20.31;43.05;102188.84;5093823;27;51321;-47